Time;durP1;ratioP1;P1;durP2;ratioP2;P2;SDS_P1;SDS_P2;PMS_P1;PMS_P2;Temp;Humidity;BMP_temperature;BMP_pressure;BME280_temperature;BME280_humidity;BME280_pressure;Samples;Min_cycle;Max_cycle;Signal;HPM_P1;HPM_P2
2021/07/25 00:01:00;;;;;;;9.90;5.30;;;;;;;;;;4991570;28;20042;-82
2021/07/25 00:03:26;;;;;;;10.52;4.78;;;;;;;;;;4992115;28;20033;-81
2021/07/25 00:05:53;;;;;;;10.30;5.22;;;;;;;;;;4992379;28;20452;-80
2021/07/25 00:08:19;;;;;;;11.65;4.72;;;;;;;;;;4993358;28;20588;-80
2021/07/25 00:10:46;;;;;;;10.18;5.25;;;;;;;;;;5076841;28;20027;-82
2021/07/25 00:13:14;;;;;;;10.27;5.53;;;;;;;;;;5075282;28;20030;-80
2021/07/25 00:15:41;;;;;;;10.70;5.05;;;;;;;;;;5075317;28;20038;-80
2021/07/25 00:18:07;;;;;;;14.73;5.05;;;;;;;;;;4991242;28;20037;-81
2021/07/25 00:20:33;;;;;;;9.52;5.13;;;;;;;;;;5076225;28;20039;-82
2021/07/25 00:23:01;;;;;;;10.52;5.15;;;;;;;;;;4991213;28;20494;-82
2021/07/25 00:25:27;;;;;;;11.30;4.85;;;;;;;;;;5075340;28;20058;-83
2021/07/25 00:27:55;;;;;;;8.68;4.75;;;;;;;;;;4991749;28;20039;-79
2021/07/25 00:30:22;;;;;;;10.38;4.75;;;;;;;;;;5075545;28;20022;-80
2021/07/25 00:32:49;;;;;;;11.95;4.70;;;;;;;;;;5075225;28;20027;-80
2021/07/25 00:35:18;;;;;;;7.57;3.97;;;;;;;;;;5075357;28;20034;-80
2021/07/25 00:37:47;;;;;;;9.80;5.03;;;;;;;;;;5075540;28;20057;-81
2021/07/25 00:40:37;;;;;;;9.75;4.80;;;;;;;;;;5074987;28;20187;-86
2021/07/25 00:43:03;;;;;;;10.25;5.00;;;;;;;;;;5075249;28;20472;-82
2021/07/25 00:45:30;;;;;;;14.07;6.03;;;;;;;;;;4991456;28;20495;-81
2021/07/25 00:47:56;;;;;;;12.05;5.38;;;;;;;;;;4991476;28;20029;-82
2021/07/25 00:50:23;;;;;;;8.50;5.18;;;;;;;;;;4990931;28;20111;-80
2021/07/25 00:52:49;;;;;;;10.02;5.50;;;;;;;;;;4991339;28;20080;-81
2021/07/25 00:55:15;;;;;;;8.15;4.93;;;;;;;;;;4991121;28;20034;-81
2021/07/25 00:57:42;;;;;;;15.20;6.72;;;;;;;;;;5074945;28;20029;-80
2021/07/25 01:00:13;;;;;;;13.15;5.90;;;;;;;;;;4990581;28;20038;-80
2021/07/25 01:02:53;;;;;;;10.48;5.93;;;;;;;;;;5075123;28;20147;-80
2021/07/25 01:05:28;;;;;;;14.35;5.30;;;;;;;;;;4993413;28;20034;-81
2021/07/25 01:08:01;;;;;;;9.80;4.82;;;;;;;;;;5078765;28;20054;-81
2021/07/25 01:10:29;;;;;;;11.47;4.97;;;;;;;;;;5078797;28;20068;-81
2021/07/25 01:13:01;;;;;;;9.82;4.65;;;;;;;;;;5078620;28;20273;-80
2021/07/25 01:15:28;;;;;;;9.43;4.90;;;;;;;;;;5078966;28;20125;-81
2021/07/25 01:17:55;;;;;;;11.02;4.45;;;;;;;;;;5078734;28;20037;-81
2021/07/25 01:20:22;;;;;;;11.18;5.00;;;;;;;;;;4995444;28;20045;-82
2021/07/25 01:22:49;;;;;;;7.93;4.10;;;;;;;;;;5078669;28;20087;-81
2021/07/25 01:25:17;;;;;;;7.28;4.05;;;;;;;;;;4994240;28;20033;-81
2021/07/25 01:27:43;;;;;;;8.30;4.55;;;;;;;;;;5079636;28;20066;-82
2021/07/25 01:30:12;;;;;;;7.53;4.38;;;;;;;;;;4993883;28;20113;-81
2021/07/25 01:32:39;;;;;;;11.85;4.43;;;;;;;;;;5078161;28;20102;-81
2021/07/25 01:35:06;;;;;;;7.85;4.00;;;;;;;;;;5079247;28;20466;-80
2021/07/25 01:37:34;;;;;;;9.30;4.93;;;;;;;;;;5074769;28;20046;-81
2021/07/25 01:40:00;;;;;;;7.35;4.30;;;;;;;;;;5074895;28;20089;-81
2021/07/25 01:42:28;;;;;;;7.45;4.10;;;;;;;;;;4974721;28;20059;-81
2021/07/25 01:44:54;;;;;;;10.90;4.82;;;;;;;;;;4974198;28;20030;-81
2021/07/25 01:47:20;;;;;;;11.52;5.35;;;;;;;;;;4974121;28;20104;-82
2021/07/25 01:49:47;;;;;;;9.48;4.93;;;;;;;;;;5074848;28;20023;-82
2021/07/25 01:52:13;;;;;;;7.95;4.05;;;;;;;;;;4974624;28;20033;-82
2021/07/25 01:54:41;;;;;;;9.00;4.72;;;;;;;;;;5074896;28;20033;-82
2021/07/25 01:57:08;;;;;;;11.32;5.30;;;;;;;;;;5074885;28;20034;-82
2021/07/25 01:59:34;;;;;;;9.40;4.25;;;;;;;;;;5074621;28;20031;-82
2021/07/25 02:02:00;;;;;;;12.27;4.63;;;;;;;;;;5074540;28;20034;-83
2021/07/25 02:04:27;;;;;;;9.35;4.47;;;;;;;;;;4973782;28;20027;-81
2021/07/25 02:06:53;;;;;;;8.38;4.68;;;;;;;;;;5074321;28;20031;-83
2021/07/25 02:09:19;;;;;;;11.73;4.70;;;;;;;;;;5074736;28;20080;-81
2021/07/25 02:11:46;;;;;;;9.15;4.03;;;;;;;;;;4974216;28;20487;-83
2021/07/25 02:14:14;;;;;;;7.88;4.10;;;;;;;;;;4973994;28;20027;-82
2021/07/25 02:16:40;;;;;;;9.73;4.60;;;;;;;;;;5073611;28;20031;-83
2021/07/25 02:19:06;;;;;;;7.45;4.50;;;;;;;;;;4973988;28;20035;-82
2021/07/25 02:21:33;;;;;;;9.38;3.80;;;;;;;;;;5074595;28;20027;-83
2021/07/25 02:23:59;;;;;;;10.90;4.20;;;;;;;;;;5075086;28;20035;-83
2021/07/25 02:26:26;;;;;;;11.63;4.22;;;;;;;;;;4974157;28;20027;-85
2021/07/25 02:28:52;;;;;;;10.75;5.18;;;;;;;;;;5073926;28;20037;-83
2021/07/25 02:31:19;;;;;;;11.50;5.50;;;;;;;;;;4973335;28;20069;-82
2021/07/25 02:33:45;;;;;;;10.52;5.25;;;;;;;;;;4973431;28;20030;-83
2021/07/25 02:36:12;;;;;;;12.20;5.93;;;;;;;;;;4979957;28;20581;-82
2021/07/25 02:38:38;;;;;;;10.25;5.47;;;;;;;;;;5076714;28;20616;-83
2021/07/25 02:41:19;;;;;;;11.25;6.25;;;;;;;;;;4994690;28;20467;-83
2021/07/25 02:43:46;;;;;;;20.88;5.78;;;;;;;;;;5061049;28;20034;-83
2021/07/25 02:46:12;;;;;;;10.15;5.20;;;;;;;;;;5077192;28;20049;-84
2021/07/25 02:48:38;;;;;;;10.70;5.90;;;;;;;;;;4992930;28;20092;-81
2021/07/25 02:51:05;;;;;;;13.13;5.65;;;;;;;;;;4992730;28;20036;-83
2021/07/25 02:53:31;;;;;;;13.35;5.18;;;;;;;;;;5076970;28;20058;-84
2021/07/25 02:55:57;;;;;;;11.32;4.88;;;;;;;;;;4992985;28;20062;-83
2021/07/25 02:58:24;;;;;;;13.18;5.65;;;;;;;;;;5076340;28;20029;-84
2021/07/25 03:00:50;;;;;;;13.05;5.80;;;;;;;;;;5077870;28;20030;-84
2021/07/25 03:03:16;;;;;;;9.55;5.03;;;;;;;;;;4992479;28;20084;-84
2021/07/25 03:05:43;;;;;;;13.63;5.90;;;;;;;;;;5076619;28;20030;-84
2021/07/25 03:08:09;;;;;;;8.68;5.03;;;;;;;;;;4992969;28;20079;-83
2021/07/25 03:10:36;;;;;;;9.02;5.22;;;;;;;;;;4992548;28;20045;-83
2021/07/25 03:13:02;;;;;;;11.27;5.88;;;;;;;;;;5076203;28;20026;-82
2021/07/25 03:15:29;;;;;;;10.70;4.50;;;;;;;;;;4992781;28;20451;-83
2021/07/25 03:17:55;;;;;;;8.70;5.00;;;;;;;;;;5076504;28;20026;-84
2021/07/25 03:20:21;;;;;;;8.05;4.95;;;;;;;;;;5076433;28;20038;-82
2021/07/25 03:22:48;;;;;;;9.63;4.88;;;;;;;;;;5076702;28;20023;-83
2021/07/25 03:25:15;;;;;;;8.82;4.70;;;;;;;;;;4992786;28;20375;-84
2021/07/25 03:27:43;;;;;;;9.65;5.07;;;;;;;;;;4992317;28;20099;-84
2021/07/25 03:30:09;;;;;;;10.73;5.07;;;;;;;;;;4992088;28;20031;-84
2021/07/25 03:32:36;;;;;;;10.25;5.30;;;;;;;;;;4993130;28;20026;-81
2021/07/25 03:35:02;;;;;;;11.57;4.82;;;;;;;;;;5075927;28;20030;-82
2021/07/25 03:37:29;;;;;;;8.82;5.07;;;;;;;;;;4991889;28;20084;-83
2021/07/25 03:39:56;;;;;;;9.45;5.40;;;;;;;;;;4992392;28;20034;-82
2021/07/25 03:42:22;;;;;;;9.18;4.78;;;;;;;;;;5075857;28;20376;-81
2021/07/25 03:44:49;;;;;;;10.05;4.68;;;;;;;;;;4991908;28;20035;-82
2021/07/25 03:47:15;;;;;;;9.13;5.13;;;;;;;;;;4992284;28;20021;-82
2021/07/25 03:49:42;;;;;;;7.28;4.38;;;;;;;;;;4993593;28;20109;-82
2021/07/25 03:52:11;;;;;;;8.10;4.95;;;;;;;;;;5076072;28;20022;-82
2021/07/25 03:54:42;;;;;;;9.45;5.15;;;;;;;;;;5075580;28;20086;-82
2021/07/25 03:57:09;;;;;;;9.63;5.13;;;;;;;;;;5075846;28;20057;-84
2021/07/25 03:59:36;;;;;;;8.13;4.90;;;;;;;;;;5075718;28;20076;-83
2021/07/25 04:02:03;;;;;;;7.25;4.60;;;;;;;;;;4991665;28;20034;-81
2021/07/25 04:04:30;;;;;;;11.32;5.28;;;;;;;;;;4991913;28;20041;-82
2021/07/25 04:06:56;;;;;;;7.18;4.88;;;;;;;;;;4991574;28;20031;-82
2021/07/25 04:09:22;;;;;;;7.88;4.40;;;;;;;;;;4991342;28;20027;-82
2021/07/25 04:11:55;;;;;;;8.15;4.43;;;;;;;;;;4991319;28;20106;-82
2021/07/25 04:14:22;;;;;;;7.82;4.28;;;;;;;;;;5075537;28;20030;-82
2021/07/25 04:16:49;;;;;;;11.85;5.03;;;;;;;;;;5075480;28;20080;-82
2021/07/25 04:19:16;;;;;;;9.32;4.38;;;;;;;;;;4991104;28;20042;-82
2021/07/25 04:21:42;;;;;;;9.02;4.80;;;;;;;;;;5075648;28;20022;-82
2021/07/25 04:24:09;;;;;;;11.75;5.13;;;;;;;;;;4991211;28;20069;-84
2021/07/25 04:26:35;;;;;;;7.40;4.50;;;;;;;;;;5075638;28;20435;-82
2021/07/25 04:29:02;;;;;;;11.98;5.00;;;;;;;;;;4991203;28;20080;-83
2021/07/25 04:31:29;;;;;;;8.48;5.05;;;;;;;;;;4991311;28;20125;-84
2021/07/25 04:33:55;;;;;;;11.07;4.88;;;;;;;;;;4990975;28;20033;-86
2021/07/25 04:36:26;;;;;;;8.32;5.28;;;;;;;;;;5071837;28;20062;-83
2021/07/25 04:38:53;;;;;;;10.48;5.13;;;;;;;;;;5071682;28;20038;-82
2021/07/25 04:41:24;;;;;;;7.38;4.90;;;;;;;;;;5075852;28;20126;-82
2021/07/25 04:43:59;;;;;;;10.75;5.57;;;;;;;;;;5075762;28;20027;-82
2021/07/25 04:46:29;;;;;;;8.65;5.30;;;;;;;;;;5075915;28;20030;-82
2021/07/25 04:49:14;;;;;;;9.48;4.85;;;;;;;;;;4974987;28;20046;-84
2021/07/25 04:51:41;;;;;;;9.77;5.43;;;;;;;;;;5076194;28;20031;-83
2021/07/25 04:54:14;;;;;;;13.30;5.40;;;;;;;;;;4974830;28;20030;-81
2021/07/25 04:56:41;;;;;;;7.65;4.55;;;;;;;;;;5075980;28;20026;-83
2021/07/25 04:59:13;;;;;;;8.50;4.90;;;;;;;;;;5075715;28;20491;-81
2021/07/25 05:01:45;;;;;;;8.13;4.97;;;;;;;;;;5076740;28;20030;-82
2021/07/25 05:04:12;;;;;;;8.23;5.37;;;;;;;;;;4975354;28;20027;-82
2021/07/25 05:06:39;;;;;;;10.27;4.78;;;;;;;;;;4974818;28;20096;-83
2021/07/25 05:09:06;;;;;;;10.98;5.53;;;;;;;;;;5075982;28;20038;-83
2021/07/25 05:11:33;;;;;;;8.93;4.90;;;;;;;;;;4974726;28;20079;-82
2021/07/25 05:14:00;;;;;;;10.77;4.95;;;;;;;;;;4974735;28;20035;-82
2021/07/25 05:16:32;;;;;;;8.60;4.55;;;;;;;;;;4975449;28;20038;-82
2021/07/25 05:19:17;;;;;;;12.05;4.65;;;;;;;;;;5075350;28;20037;-82
2021/07/25 05:21:46;;;;;;;10.18;5.10;;;;;;;;;;5076004;28;20061;-82
2021/07/25 05:24:13;;;;;;;15.93;5.03;;;;;;;;;;5075568;28;20031;-82
2021/07/25 05:26:40;;;;;;;9.35;4.95;;;;;;;;;;4975126;28;20077;-82
2021/07/25 05:29:07;;;;;;;8.77;4.82;;;;;;;;;;4974574;28;20027;-82
2021/07/25 05:31:34;;;;;;;9.30;4.90;;;;;;;;;;5074864;28;20034;-82
2021/07/25 05:34:02;;;;;;;10.90;4.85;;;;;;;;;;5074926;28;20031;-83
2021/07/25 05:36:29;;;;;;;8.27;5.15;;;;;;;;;;5074506;28;20043;-82
2021/07/25 05:38:55;;;;;;;12.52;5.20;;;;;;;;;;5074871;28;20117;-81
2021/07/25 05:41:22;;;;;;;12.73;5.78;;;;;;;;;;4974670;28;20110;-81
2021/07/25 05:43:48;;;;;;;9.52;5.63;;;;;;;;;;5075325;28;20050;-82
2021/07/25 05:46:15;;;;;;;10.68;5.30;;;;;;;;;;4974202;28;20418;-82
2021/07/25 05:48:41;;;;;;;8.85;4.88;;;;;;;;;;5074817;28;20156;-81
2021/07/25 05:51:07;;;;;;;10.30;5.32;;;;;;;;;;4972676;28;20061;-82
2021/07/25 05:53:34;;;;;;;9.90;5.82;;;;;;;;;;4973965;28;20027;-81
2021/07/25 05:56:00;;;;;;;10.23;5.97;;;;;;;;;;5074428;28;20081;-81
2021/07/25 05:58:26;;;;;;;9.23;5.78;;;;;;;;;;4973901;28;20027;-80
2021/07/25 06:00:53;;;;;;;10.30;5.57;;;;;;;;;;5074364;28;20553;-81
2021/07/25 06:03:19;;;;;;;9.00;5.10;;;;;;;;;;4974288;28;20030;-81
2021/07/25 06:05:45;;;;;;;13.15;5.18;;;;;;;;;;4974466;28;20038;-82
2021/07/25 06:08:12;;;;;;;9.18;5.72;;;;;;;;;;5074728;28;20027;-81
2021/07/25 06:10:42;;;;;;;8.30;5.35;;;;;;;;;;4974440;28;20495;-81
2021/07/25 06:13:08;;;;;;;9.05;5.35;;;;;;;;;;5074362;28;20023;-82
2021/07/25 06:15:35;;;;;;;8.82;5.50;;;;;;;;;;4973628;28;20031;-82
2021/07/25 06:18:03;;;;;;;10.55;5.68;;;;;;;;;;5074068;28;20034;-81
2021/07/25 06:20:30;;;;;;;10.50;5.95;;;;;;;;;;5073950;28;20053;-81
2021/07/25 06:22:57;;;;;;;8.50;4.80;;;;;;;;;;5073904;28;20085;-82
2021/07/25 06:25:26;;;;;;;6.70;4.22;;;;;;;;;;5074022;28;20503;-82
2021/07/25 06:27:54;;;;;;;7.43;4.57;;;;;;;;;;5074285;28;20027;-82
2021/07/25 06:30:21;;;;;;;6.90;4.50;;;;;;;;;;5073697;28;20030;-82
2021/07/25 06:33:06;;;;;;;8.77;4.50;;;;;;;;;;4973807;28;20109;-82
2021/07/25 06:35:33;;;;;;;7.35;4.28;;;;;;;;;;5075383;28;20054;-83
2021/07/25 06:38:03;;;;;;;8.68;4.45;;;;;;;;;;5076841;28;20038;-82
2021/07/25 06:40:30;;;;;;;6.47;4.00;;;;;;;;;;5077027;28;20042;-81
2021/07/25 06:42:57;;;;;;;9.23;4.68;;;;;;;;;;5076921;28;20019;-83
2021/07/25 06:45:24;;;;;;;8.43;4.75;;;;;;;;;;5077220;28;20026;-83
2021/07/25 06:47:51;;;;;;;9.07;4.97;;;;;;;;;;4992512;28;20398;-81
2021/07/25 06:50:21;;;;;;;7.65;4.78;;;;;;;;;;5076849;28;20160;-82
2021/07/25 06:52:48;;;;;;;7.60;5.30;;;;;;;;;;5076470;28;20087;-82
2021/07/25 06:55:15;;;;;;;7.68;5.07;;;;;;;;;;4992890;28;20379;-81
2021/07/25 06:57:42;;;;;;;8.68;5.07;;;;;;;;;;4992279;28;20023;-82
2021/07/25 07:00:09;;;;;;;8.45;6.10;;;;;;;;;;5076420;28;20038;-83
2021/07/25 07:02:48;;;;;;;8.50;5.40;;;;;;;;;;5076184;28;20022;-82
2021/07/25 07:05:18;;;;;;;7.50;5.05;;;;;;;;;;5076724;28;20101;-81
2021/07/25 07:07:45;;;;;;;9.55;5.93;;;;;;;;;;5076318;28;20433;-81
2021/07/25 07:10:12;;;;;;;11.27;5.80;;;;;;;;;;4992450;28;20023;-81
2021/07/25 07:12:38;;;;;;;12.75;5.97;;;;;;;;;;4992670;28;20080;-82
2021/07/25 07:15:06;;;;;;;8.93;5.88;;;;;;;;;;4992126;28;20113;-82
2021/07/25 07:17:32;;;;;;;11.73;6.20;;;;;;;;;;5076151;28;20034;-83
2021/07/25 07:19:59;;;;;;;10.38;6.40;;;;;;;;;;4991931;28;20034;-82
2021/07/25 07:22:28;;;;;;;8.20;5.82;;;;;;;;;;4991947;28;20026;-83
2021/07/25 07:24:55;;;;;;;10.13;6.20;;;;;;;;;;4992661;28;20038;-82
2021/07/25 07:27:22;;;;;;;8.27;6.38;;;;;;;;;;5077212;28;20077;-83
2021/07/25 07:29:49;;;;;;;10.93;6.72;;;;;;;;;;4991911;28;20064;-82
2021/07/25 07:32:15;;;;;;;11.93;6.97;;;;;;;;;;4991775;28;20075;-82
2021/07/25 07:34:42;;;;;;;10.13;7.28;;;;;;;;;;5075636;28;20034;-84
2021/07/25 07:37:08;;;;;;;10.40;6.82;;;;;;;;;;4991593;28;20074;-82
2021/07/25 07:39:37;;;;;;;13.25;7.63;;;;;;;;;;5074790;28;20081;-81
2021/07/25 07:42:04;;;;;;;12.43;7.35;;;;;;;;;;4991781;28;20383;-81
2021/07/25 07:44:31;;;;;;;11.07;7.78;;;;;;;;;;5075770;28;20049;-82
2021/07/25 07:46:57;;;;;;;10.52;7.82;;;;;;;;;;5075643;28;20040;-81
2021/07/25 07:49:23;;;;;;;12.70;8.18;;;;;;;;;;5075998;28;20483;-82
2021/07/25 07:51:50;;;;;;;10.77;8.13;;;;;;;;;;4993398;28;20034;-82
2021/07/25 07:54:16;;;;;;;11.02;8.25;;;;;;;;;;4992641;28;20058;-82
2021/07/25 07:56:42;;;;;;;11.90;7.90;;;;;;;;;;4991636;28;20026;-83
2021/07/25 07:59:09;;;;;;;15.25;8.50;;;;;;;;;;4991934;28;20037;-82
2021/07/25 08:01:35;;;;;;;14.27;9.40;;;;;;;;;;4992545;28;20037;-82
2021/07/25 08:04:01;;;;;;;15.93;9.75;;;;;;;;;;5080039;28;20443;-82
2021/07/25 08:06:28;;;;;;;14.75;9.38;;;;;;;;;;4991264;28;20110;-83
2021/07/25 08:08:54;;;;;;;13.75;9.05;;;;;;;;;;5075612;28;20467;-82
2021/07/25 08:11:21;;;;;;;14.52;9.25;;;;;;;;;;5075227;28;20023;-84
2021/07/25 08:13:47;;;;;;;13.70;8.68;;;;;;;;;;4990360;28;20082;-84
2021/07/25 08:16:14;;;;;;;13.48;9.07;;;;;;;;;;4991741;28;20113;-81
2021/07/25 08:18:40;;;;;;;13.45;8.50;;;;;;;;;;5075356;28;20091;-81
2021/07/25 08:21:07;;;;;;;12.52;8.35;;;;;;;;;;4991240;28;20109;-82
2021/07/25 08:23:34;;;;;;;14.10;9.13;;;;;;;;;;4991798;28;20068;-83
2021/07/25 08:26:01;;;;;;;12.95;8.13;;;;;;;;;;5074799;28;20031;-82
2021/07/25 08:28:27;;;;;;;12.30;7.93;;;;;;;;;;4991645;28;20095;-82
2021/07/25 08:30:54;;;;;;;16.60;8.43;;;;;;;;;;4991037;28;20030;-84
2021/07/25 08:33:20;;;;;;;9.68;8.00;;;;;;;;;;5075183;28;20033;-82
2021/07/25 08:35:47;;;;;;;12.82;8.35;;;;;;;;;;5074952;28;20459;-83
2021/07/25 08:38:13;;;;;;;11.77;8.10;;;;;;;;;;4991564;28;20022;-82
2021/07/25 08:40:40;;;;;;;12.23;8.07;;;;;;;;;;5075103;28;20096;-82
2021/07/25 08:43:09;;;;;;;13.23;8.98;;;;;;;;;;4990918;28;20022;-82
2021/07/25 08:45:36;;;;;;;14.52;8.90;;;;;;;;;;5075366;28;20393;-83
2021/07/25 08:48:11;;;;;;;12.65;8.63;;;;;;;;;;4990838;28;20103;-82
2021/07/25 08:50:41;;;;;;;12.30;8.63;;;;;;;;;;5075095;28;20060;-81
2021/07/25 08:53:11;;;;;;;12.50;8.30;;;;;;;;;;4990825;28;20518;-82
2021/07/25 08:55:38;;;;;;;13.63;8.30;;;;;;;;;;5074891;28;20478;-82
2021/07/25 08:58:07;;;;;;;12.70;9.18;;;;;;;;;;4990918;28;20441;-84
2021/07/25 09:00:35;;;;;;;10.98;8.07;;;;;;;;;;4990623;28;20038;-82
2021/07/25 09:03:05;;;;;;;14.43;8.25;;;;;;;;;;4991241;28;20068;-82
2021/07/25 09:05:31;;;;;;;13.20;8.50;;;;;;;;;;5074613;28;20117;-84
2021/07/25 09:07:58;;;;;;;10.70;7.97;;;;;;;;;;5075853;28;20527;-82
2021/07/25 09:10:25;;;;;;;12.60;8.13;;;;;;;;;;5074595;28;20026;-82
2021/07/25 09:12:52;;;;;;;11.35;8.57;;;;;;;;;;5075255;28;20096;-82
2021/07/25 09:15:24;;;;;;;11.35;8.32;;;;;;;;;;5074444;28;20156;-82
2021/07/25 09:17:51;;;;;;;12.00;7.95;;;;;;;;;;5074840;28;20026;-83
2021/07/25 09:20:20;;;;;;;13.60;8.68;;;;;;;;;;5074514;28;20038;-82
2021/07/25 09:22:49;;;;;;;11.65;8.88;;;;;;;;;;5074694;28;20060;-81
2021/07/25 09:25:19;;;;;;;11.63;8.27;;;;;;;;;;5075228;28;20026;-81
2021/07/25 09:27:45;;;;;;;13.65;8.60;;;;;;;;;;4993782;28;20018;-82
2021/07/25 09:30:18;;;;;;;13.63;9.15;;;;;;;;;;4993722;28;20050;-81
2021/07/25 09:32:46;;;;;;;14.95;8.50;;;;;;;;;;5078308;28;20041;-82
2021/07/25 09:35:24;;;;;;;12.35;8.73;;;;;;;;;;4994156;28;20035;-81
2021/07/25 09:37:51;;;;;;;12.45;7.95;;;;;;;;;;4993715;28;20038;-81
2021/07/25 09:40:23;;;;;;;9.70;7.82;;;;;;;;;;5077864;28;20038;-82
2021/07/25 09:42:50;;;;;;;13.25;8.27;;;;;;;;;;5078021;28;20030;-81
2021/07/25 09:45:17;;;;;;;12.85;8.77;;;;;;;;;;4993483;28;20026;-83
2021/07/25 09:47:44;;;;;;;15.40;8.20;;;;;;;;;;4993411;28;20068;-80
2021/07/25 09:50:11;;;;;;;10.40;7.88;;;;;;;;;;4993323;28;20023;-81
2021/07/25 09:52:38;;;;;;;10.48;7.57;;;;;;;;;;4993399;28;20026;-81
2021/07/25 09:55:06;;;;;;;11.05;7.68;;;;;;;;;;5077791;28;20495;-80
2021/07/25 09:57:35;;;;;;;12.98;8.10;;;;;;;;;;5077532;28;20034;-82
2021/07/25 10:00:13;;;;;;;12.35;8.43;;;;;;;;;;5077854;28;20152;-81
2021/07/25 10:02:43;;;;;;;14.73;9.00;;;;;;;;;;5077433;28;20030;-82
2021/07/25 10:05:10;;;;;;;13.25;8.70;;;;;;;;;;5077619;28;20390;-81
2021/07/25 10:07:37;;;;;;;15.70;8.60;;;;;;;;;;4993104;28;20467;-83
2021/07/25 10:10:05;;;;;;;10.20;7.40;;;;;;;;;;5077500;28;20050;-81
2021/07/25 10:12:32;;;;;;;11.68;8.15;;;;;;;;;;5077092;28;20077;-81
2021/07/25 10:14:59;;;;;;;13.88;8.63;;;;;;;;;;5077616;28;20414;-81
2021/07/25 10:17:27;;;;;;;15.68;8.45;;;;;;;;;;4992936;28;20027;-84
2021/07/25 10:19:54;;;;;;;21.73;8.38;;;;;;;;;;5077403;28;20038;-81
2021/07/25 10:22:22;;;;;;;11.90;8.02;;;;;;;;;;4993529;28;20084;-82
2021/07/25 10:24:49;;;;;;;10.63;7.50;;;;;;;;;;4993430;28;20030;-81
2021/07/25 10:27:19;;;;;;;14.43;8.23;;;;;;;;;;4993131;28;20018;-81
2021/07/25 10:29:46;;;;;;;12.20;8.02;;;;;;;;;;5077120;28;20113;-81
2021/07/25 10:32:12;;;;;;;12.07;7.82;;;;;;;;;;4993096;28;20061;-82
2021/07/25 10:34:40;;;;;;;10.82;8.00;;;;;;;;;;4993417;28;20527;-82
2021/07/25 10:37:06;;;;;;;11.27;8.13;;;;;;;;;;4991784;28;20050;-81
2021/07/25 10:39:33;;;;;;;9.25;7.53;;;;;;;;;;5077017;28;20038;-81
2021/07/25 10:42:02;;;;;;;10.88;7.85;;;;;;;;;;4993223;28;20030;-81
2021/07/25 10:44:28;;;;;;;10.80;8.00;;;;;;;;;;5076949;28;20505;-82
2021/07/25 10:47:13;;;;;;;10.13;7.85;;;;;;;;;;4992959;28;20460;-81
2021/07/25 10:49:39;;;;;;;11.20;8.50;;;;;;;;;;5076999;28;20029;-82
2021/07/25 10:52:06;;;;;;;11.38;8.57;;;;;;;;;;4992739;28;20061;-81
2021/07/25 10:54:34;;;;;;;10.23;7.90;;;;;;;;;;4992779;28;20034;-80
2021/07/25 10:57:04;;;;;;;12.80;8.98;;;;;;;;;;5076840;28;20390;-80
2021/07/25 10:59:38;;;;;;;12.25;7.78;;;;;;;;;;5078452;28;20458;-79
2021/07/25 11:02:05;;;;;;;12.38;8.63;;;;;;;;;;5076716;28;20608;-80
2021/07/25 11:05:06;;;;;;;11.20;8.50;;;;;;;;;;4992726;28;20034;-80
2021/07/25 11:07:33;;;;;;;13.45;9.07;;;;;;;;;;5053072;28;20425;-81
2021/07/25 11:10:10;;;;;;;11.45;8.68;;;;;;;;;;5004061;28;20047;-82
2021/07/25 11:12:50;;;;;;;10.80;8.13;;;;;;;;;;5076298;28;20026;-82
2021/07/25 11:15:35;;;;;;;14.93;9.27;;;;;;;;;;5077137;28;20490;-80
2021/07/25 11:18:05;;;;;;;12.13;9.00;;;;;;;;;;5076352;28;20031;-81
2021/07/25 11:20:50;;;;;;;12.90;8.48;;;;;;;;;;5076133;28;20046;-80
2021/07/25 11:23:20;;;;;;;13.80;8.85;;;;;;;;;;5076362;28;20033;-80
2021/07/25 11:25:47;;;;;;;10.90;7.55;;;;;;;;;;4991983;28;20061;-79
2021/07/25 11:28:33;;;;;;;12.65;9.23;;;;;;;;;;4991890;28;20034;-80
2021/07/25 11:30:59;;;;;;;13.00;9.40;;;;;;;;;;4991676;28;20030;-80
2021/07/25 11:33:41;;;;;;;14.40;8.77;;;;;;;;;;4991835;28;20459;-82
2021/07/25 11:36:08;;;;;;;11.75;8.68;;;;;;;;;;5072604;28;20129;-81
2021/07/25 11:38:34;;;;;;;13.48;8.57;;;;;;;;;;4972374;28;20168;-81
2021/07/25 11:41:01;;;;;;;16.15;8.25;;;;;;;;;;5072365;28;20129;-81
2021/07/25 11:43:47;;;;;;;13.60;8.05;;;;;;;;;;5072519;28;20031;-80
2021/07/25 11:46:22;;;;;;;17.20;9.38;;;;;;;;;;4972230;28;20023;-80
2021/07/25 11:49:01;;;;;;;10.68;7.32;;;;;;;;;;5072195;28;20025;-81
2021/07/25 11:51:27;;;;;;;12.38;9.02;;;;;;;;;;5072302;28;20554;-80
2021/07/25 11:53:54;;;;;;;15.68;8.68;;;;;;;;;;4972229;28;20031;-79
2021/07/25 11:56:20;;;;;;;12.32;8.25;;;;;;;;;;4972626;28;20483;-81
2021/07/25 11:58:59;;;;;;;13.93;8.48;;;;;;;;;;5072587;28;20026;-83
2021/07/25 12:01:26;;;;;;;12.13;8.68;;;;;;;;;;5072078;28;20027;-81
2021/07/25 12:03:52;;;;;;;13.77;8.45;;;;;;;;;;4972537;28;20030;-80
2021/07/25 12:06:18;;;;;;;13.80;8.60;;;;;;;;;;4972502;28;20058;-81
2021/07/25 12:09:03;;;;;;;15.10;7.85;;;;;;;;;;4972681;28;20410;-82
2021/07/25 12:11:29;;;;;;;14.57;8.18;;;;;;;;;;5072121;28;20031;-80
2021/07/25 12:13:55;;;;;;;13.57;8.50;;;;;;;;;;5072406;28;20117;-80
2021/07/25 12:16:22;;;;;;;13.45;7.38;;;;;;;;;;4972467;28;20467;-80
2021/07/25 12:18:48;;;;;;;12.63;8.32;;;;;;;;;;4972034;28;20435;-80
2021/07/25 12:21:29;;;;;;;11.32;7.63;;;;;;;;;;4972346;28;20478;-81
2021/07/25 12:23:56;;;;;;;11.93;8.77;;;;;;;;;;5072116;28;20034;-80
2021/07/25 12:26:39;;;;;;;11.55;8.10;;;;;;;;;;4971792;28;20035;-80
2021/07/25 12:29:23;;;;;;;9.95;7.55;;;;;;;;;;5072118;28;20058;-81
2021/07/25 12:31:50;;;;;;;12.73;9.00;;;;;;;;;;5072235;28;20050;-81
2021/07/25 12:34:22;;;;;;;14.93;7.78;;;;;;;;;;4972248;28;20054;-80
2021/07/25 12:36:48;;;;;;;12.38;8.50;;;;;;;;;;5072058;28;20089;-80
2021/07/25 12:39:20;;;;;;;11.80;8.85;;;;;;;;;;4971885;28;20039;-80
2021/07/25 12:41:47;;;;;;;10.30;7.53;;;;;;;;;;5072135;28;20031;-83
2021/07/25 12:44:26;;;;;;;12.38;8.23;;;;;;;;;;4971817;28;20031;-80
2021/07/25 12:46:52;;;;;;;10.32;7.38;;;;;;;;;;5073802;28;20467;-80
2021/07/25 12:49:18;;;;;;;13.43;8.52;;;;;;;;;;4972786;28;20069;-81
2021/07/25 12:51:45;;;;;;;11.23;8.40;;;;;;;;;;4972051;28;20038;-81
2021/07/25 12:54:12;;;;;;;11.15;8.23;;;;;;;;;;5071761;28;20023;-80
2021/07/25 12:56:38;;;;;;;13.10;8.68;;;;;;;;;;4972030;28;20375;-80
2021/07/25 12:59:11;;;;;;;12.00;8.55;;;;;;;;;;4971339;28;20081;-83
2021/07/25 13:04:10;;;;;;;;;;;;;;;;;;4975064;28;20034;-81
2021/07/25 13:06:44;;;;;;;16.27;8.43;;;;;;;;;;4974828;28;19906;-80
2021/07/25 13:09:11;;;;;;;13.70;9.07;;;;;;;;;;5075477;28;20038;-81
2021/07/25 13:11:41;;;;;;;14.57;8.18;;;;;;;;;;4975163;28;20068;-80
2021/07/25 13:14:09;;;;;;;12.95;8.98;;;;;;;;;;5076046;28;20422;-80
2021/07/25 13:16:36;;;;;;;12.27;8.75;;;;;;;;;;5075419;28;20165;-81
2021/07/25 13:19:02;;;;;;;12.23;7.90;;;;;;;;;;4975064;28;20034;-83
2021/07/25 13:21:29;;;;;;;12.07;7.95;;;;;;;;;;4974438;28;20114;-81
2021/07/25 13:23:56;;;;;;;11.25;8.15;;;;;;;;;;5075586;28;20026;-80
2021/07/25 13:26:23;;;;;;;11.90;8.13;;;;;;;;;;4974580;28;20533;-80
2021/07/25 13:28:50;;;;;;;13.70;7.30;;;;;;;;;;5075330;28;20447;-82
2021/07/25 13:31:16;;;;;;;9.25;7.28;;;;;;;;;;5075309;28;20121;-82
2021/07/25 13:33:43;;;;;;;11.63;7.32;;;;;;;;;;5075426;28;20070;-82
2021/07/25 13:36:10;;;;;;;8.75;6.93;;;;;;;;;;5074854;28;20128;-83
2021/07/25 13:38:38;;;;;;;9.75;6.63;;;;;;;;;;5074801;28;20038;-81
2021/07/25 13:41:05;;;;;;;10.35;7.80;;;;;;;;;;5074627;28;20042;-81
2021/07/25 13:43:38;;;;;;;13.05;7.57;;;;;;;;;;4974789;28;20098;-83
2021/07/25 13:46:06;;;;;;;9.80;7.88;;;;;;;;;;5075222;28;20031;-82
2021/07/25 13:48:36;;;;;;;12.45;7.68;;;;;;;;;;5074894;28;20081;-82
2021/07/25 13:51:04;;;;;;;12.00;7.65;;;;;;;;;;4974356;28;20019;-82
2021/07/25 13:53:30;;;;;;;12.73;7.85;;;;;;;;;;4974598;28;20104;-80
2021/07/25 13:55:57;;;;;;;11.63;8.00;;;;;;;;;;5074582;28;20027;-82
2021/07/25 13:58:23;;;;;;;12.70;8.40;;;;;;;;;;4973908;28;20031;-81
2021/07/25 14:00:50;;;;;;;10.45;7.53;;;;;;;;;;4973981;28;20038;-81
2021/07/25 14:03:17;;;;;;;11.80;7.25;;;;;;;;;;5074612;28;20081;-80
2021/07/25 14:05:43;;;;;;;12.10;8.32;;;;;;;;;;5074688;28;20556;-81
2021/07/25 14:08:09;;;;;;;13.63;8.13;;;;;;;;;;5075677;28;20029;-83
2021/07/25 14:10:36;;;;;;;12.43;8.10;;;;;;;;;;4973950;28;20084;-81
2021/07/25 14:13:02;;;;;;;12.88;7.72;;;;;;;;;;5073027;28;20035;-82
2021/07/25 14:15:29;;;;;;;9.82;7.05;;;;;;;;;;4973773;28;20395;-81
2021/07/25 14:17:56;;;;;;;11.73;7.00;;;;;;;;;;5073915;28;20031;-81
2021/07/25 14:20:23;;;;;;;11.40;8.15;;;;;;;;;;5074444;28;20446;-83
2021/07/25 14:22:49;;;;;;;10.95;7.75;;;;;;;;;;4974343;28;20494;-82
2021/07/25 14:25:16;;;;;;;11.23;8.10;;;;;;;;;;4973732;28;20042;-81
2021/07/25 14:27:42;;;;;;;11.77;8.23;;;;;;;;;;4973840;28;20023;-80
2021/07/25 14:30:09;;;;;;;12.55;8.43;;;;;;;;;;4975125;28;20153;-81
2021/07/25 14:32:38;;;;;;;11.02;7.60;;;;;;;;;;5074396;28;20064;-84
2021/07/25 14:35:05;;;;;;;11.85;8.20;;;;;;;;;;5073984;28;20027;-81
2021/07/25 14:37:32;;;;;;;11.20;7.40;;;;;;;;;;5073639;28;20445;-80
2021/07/25 14:40:01;;;;;;;13.07;8.48;;;;;;;;;;4973759;28;20114;-81
2021/07/25 14:42:27;;;;;;;11.95;7.95;;;;;;;;;;5074046;28;20023;-82